Time;durP1;ratioP1;P1;durP2;ratioP2;P2;SDS_P1;SDS_P2;PMS_P1;PMS_P2;Temp;Humidity;BMP_temperature;BMP_pressure;BME280_temperature;BME280_humidity;BME280_pressure;Samples;Min_cycle;Max_cycle;Signal;HPM_P1;HPM_P2
2021/11/17 02:25:55;;;;;;;22.50;11.48;;;6.30;93.40;;;;;;2110281;28;20065;-89
2021/11/17 02:27:21;;;;;;;28.05;12.70;;;6.30;93.40;;;;;;2094634;28;20093;-89
2021/11/17 02:28:46;;;;;;;27.23;11.75;;;6.30;93.50;;;;;;2089306;28;20021;-88
2021/11/17 02:30:11;;;;;;;25.60;11.80;;;6.30;93.50;;;;;;2091545;28;20025;-89
2021/11/17 02:31:49;;;;;;;24.75;11.43;;;6.40;93.50;;;;;;2102927;28;20027;-89
2021/11/17 02:33:30;;;;;;;22.98;11.63;;;6.30;93.50;;;;;;2111954;28;20041;-88
2021/11/17 02:34:53;;;;;;;23.58;11.70;;;6.30;93.50;;;;;;2078324;28;20087;-89
2021/11/17 02:36:16;;;;;;;25.17;11.35;;;6.40;93.50;;;;;;2080940;28;20120;-90
2021/11/17 02:37:27;;;;;;;25.63;11.75;;;6.30;93.40;;;;;;2073916;28;20041;-89
2021/11/17 02:38:35;;;;;;;27.10;11.98;;;6.40;93.50;;;;;;2075648;28;20118;-89
2021/11/17 02:39:49;;;;;;;27.00;12.23;;;6.40;93.50;;;;;;2065765;28;20101;-89
2021/11/17 02:41:02;;;;;;;27.48;11.95;;;6.40;93.50;;;;;;2093152;28;20071;-89
2021/11/17 02:42:30;;;;;;;28.98;12.52;;;6.40;93.60;;;;;;2093252;28;20473;-89
2021/11/17 02:43:43;;;;;;;29.20;13.05;;;6.40;93.60;;;;;;2098834;28;20028;-89
2021/11/17 02:45:15;;;;;;;27.35;12.57;;;6.40;93.60;;;;;;2107090;28;20025;-89
2021/11/17 02:46:53;;;;;;;27.30;12.90;;;6.30;93.50;;;;;;2103971;28;20103;-89
2021/11/17 02:48:14;;;;;;;27.33;12.32;;;6.40;93.60;;;;;;2112233;28;20028;-89
2021/11/17 02:49:36;;;;;;;27.05;12.50;;;6.30;93.50;;;;;;2118502;28;20048;-88
2021/11/17 02:51:00;;;;;;;27.60;13.30;;;6.30;93.50;;;;;;2120045;28;20023;-88
2021/11/17 02:52:03;;;;;;;26.25;12.23;;;6.40;93.60;;;;;;2116867;28;20023;-88
2021/11/17 02:53:22;;;;;;;26.65;12.48;;;6.40;93.60;;;;;;2105535;28;20030;-84
2021/11/17 02:54:36;;;;;;;28.35;12.35;;;6.40;93.80;;;;;;2111732;28;20016;-88
2021/11/17 02:56:32;;;;;;;26.58;12.57;;;6.40;93.60;;;;;;2107248;28;20017;-87
2021/11/17 02:58:07;;;;;;;26.77;12.00;;;6.40;93.60;;;;;;2099016;28;20115;-89
2021/11/17 02:59:31;;;;;;;27.42;12.23;;;6.40;93.60;;;;;;2085981;28;20063;-88
2021/11/17 03:01:16;;;;;;;25.42;11.77;;;6.40;93.60;;;;;;2107143;28;20027;-89
2021/11/17 03:02:22;;;;;;;27.63;11.75;;;6.40;93.60;;;;;;2097628;28;20028;-88
2021/11/17 03:03:50;;;;;;;29.42;13.02;;;6.40;93.60;;;;;;2100475;28;20025;-89
2021/11/17 03:05:15;;;;;;;27.40;13.10;;;6.40;93.50;;;;;;2103870;28;20111;-88
2021/11/17 03:06:25;;;;;;;26.88;11.68;;;6.40;93.50;;;;;;2104533;28;20035;-89
2021/11/17 03:07:40;;;;;;;26.63;12.32;;;6.40;93.50;;;;;;2104664;28;20036;-89
2021/11/17 03:09:19;;;;;;;25.75;12.45;;;6.40;93.60;;;;;;2105472;28;20024;-88
2021/11/17 03:10:31;;;;;;;25.83;12.00;;;6.40;93.60;;;;;;2071975;28;20515;-89
2021/11/17 03:11:43;;;;;;;26.88;12.55;;;6.40;93.60;;;;;;2075603;28;20080;-88
2021/11/17 03:12:50;;;;;;;25.50;12.30;;;6.40;93.60;;;;;;2110364;28;20111;-89
2021/11/17 03:14:06;;;;;;;26.60;12.80;;;6.40;93.60;;;;;;2101059;28;20028;-89
2021/11/17 03:15:35;;;;;;;28.35;13.25;;;6.40;93.60;;;;;;2106652;28;20654;-89
2021/11/17 03:16:45;;;;;;;27.30;12.70;;;6.40;93.60;;;;;;2102637;28;20032;-88
2021/11/17 03:18:11;;;;;;;28.45;12.65;;;6.40;93.60;;;;;;2095805;28;20037;-88
2021/11/17 03:19:41;;;;;;;27.95;12.85;;;6.40;93.60;;;;;;2105397;28;20031;-89
2021/11/17 03:21:18;;;;;;;27.95;12.75;;;6.40;93.60;;;;;;2086638;28;20021;-89
2021/11/17 03:22:40;;;;;;;28.67;12.38;;;6.40;93.60;;;;;;2106867;28;20020;-89
2021/11/17 03:24:05;;;;;;;26.90;12.43;;;6.40;93.60;;;;;;2106110;28;20441;-89
2021/11/17 03:25:59;;;;;;;26.20;12.38;;;6.40;93.60;;;;;;2103086;28;20056;-89
2021/11/17 03:27:36;;;;;;;25.67;11.25;;;6.40;93.50;;;;;;2080186;28;20084;-89
2021/11/17 03:29:06;;;;;;;24.10;10.82;;;6.40;93.50;;;;;;2072576;28;20116;-89
2021/11/17 03:30:12;;;;;;;24.83;11.02;;;6.40;93.50;;;;;;2076084;28;20037;-90
2021/11/17 03:31:37;;;;;;;25.38;11.50;;;6.40;93.50;;;;;;2083028;28;20462;-88
2021/11/17 03:32:53;;;;;;;28.95;13.23;;;6.40;93.50;;;;;;2108142;28;20035;-89
2021/11/17 03:34:18;;;;;;;26.30;11.35;;;6.40;93.50;;;;;;2115431;28;20019;-89
2021/11/17 03:35:34;;;;;;;26.58;11.80;;;6.40;93.50;;;;;;2102477;28;20107;-89
2021/11/17 03:36:53;;;;;;;28.70;12.48;;;6.40;93.60;;;;;;2092215;28;20395;-89
2021/11/17 03:38:07;;;;;;;25.90;11.55;;;6.40;93.60;;;;;;2092980;28;20033;-89
2021/11/17 03:39:25;;;;;;;30.63;13.73;;;6.30;93.50;;;;;;2098468;28;20482;-89
2021/11/17 03:40:53;;;;;;;30.08;12.98;;;6.40;93.60;;;;;;2102003;28;20028;-89
2021/11/17 03:41:56;;;;;;;27.38;13.02;;;6.40;93.60;;;;;;2101760;28;20039;-89
2021/11/17 03:43:35;;;;;;;26.92;12.73;;;6.40;93.60;;;;;;2090818;28;20043;-89
2021/11/17 03:44:44;;;;;;;28.02;12.70;;;6.40;93.60;;;;;;2106128;28;20016;-89
2021/11/17 03:46:03;;;;;;;27.08;12.52;;;6.30;93.60;;;;;;2100532;28;20111;-90
2021/11/17 03:47:33;;;;;;;29.08;13.38;;;6.40;93.60;;;;;;2102366;28;20406;-89
2021/11/17 03:48:51;;;;;;;25.85;11.90;;;6.40;93.60;;;;;;2103497;28;20446;-90
2021/11/17 03:50:05;;;;;;;29.98;13.52;;;6.30;93.60;;;;;;2109510;28;20036;-90
2021/11/17 03:51:09;;;;;;;24.63;11.95;;;6.30;93.60;;;;;;2102162;28;20086;-89
2021/11/17 03:52:38;;;;;;;29.20;12.90;;;6.40;93.60;;;;;;2098444;28;20036;-90
2021/11/17 03:54:09;;;;;;;27.30;12.77;;;6.40;93.60;;;;;;2104660;28;20444;-90
2021/11/17 03:55:28;;;;;;;27.95;11.15;;;6.40;93.60;;;;;;2098414;28;20023;-89
2021/11/17 03:56:55;;;;;;;27.42;12.35;;;6.40;93.60;;;;;;2094086;28;20609;-89
2021/11/17 03:58:06;;;;;;;28.10;12.88;;;6.40;93.60;;;;;;2068487;28;20128;-90
2021/11/17 03:59:17;;;;;;;24.45;11.90;;;6.40;93.60;;;;;;2094403;28;20526;-90
2021/11/17 04:01:01;;;;;;;26.77;12.70;;;6.40;93.60;;;;;;2097700;28;20052;-90
2021/11/17 04:02:31;;;;;;;22.58;11.57;;;6.40;93.60;;;;;;2101803;28;20031;-90
2021/11/17 04:03:41;;;;;;;26.75;12.00;;;6.40;93.60;;;;;;2089997;28;20017;-90
2021/11/17 04:04:50;;;;;;;24.30;11.98;;;6.40;93.60;;;;;;2094055;28;20038;-90
2021/11/17 04:05:57;;;;;;;23.48;11.77;;;6.40;93.60;;;;;;2098232;28;20098;-90
2021/11/17 04:07:14;;;;;;;27.65;12.60;;;6.40;93.60;;;;;;2099131;28;20056;-90
2021/11/17 04:08:29;;;;;;;27.35;12.68;;;6.40;93.60;;;;;;2098598;28;20397;-89
2021/11/17 04:09:48;;;;;;;25.88;11.95;;;6.40;93.60;;;;;;2100760;28;20074;-89
2021/11/17 04:11:07;;;;;;;24.05;11.88;;;6.40;93.60;;;;;;2108900;28;20050;-90
2021/11/17 04:12:20;;;;;;;26.95;11.73;;;6.40;93.60;;;;;;2113370;28;20134;-90
2021/11/17 04:13:57;;;;;;;24.17;12.55;;;6.40;93.60;;;;;;2105846;28;20089;-89
2021/11/17 04:15:30;;;;;;;24.92;12.35;;;6.50;93.60;;;;;;2065088;28;20034;-89
2021/11/17 04:16:42;;;;;;;23.27;11.38;;;6.50;93.60;;;;;;2094283;28;20040;-89
2021/11/17 04:17:49;;;;;;;28.33;12.15;;;6.50;93.60;;;;;;2107661;28;20609;-90
2021/11/17 04:18:55;;;;;;;29.08;13.15;;;6.40;93.50;;;;;;2111825;28;20081;-90
2021/11/17 04:20:16;;;;;;;26.20;11.73;;;6.40;93.60;;;;;;2098995;28;20040;-89
2021/11/17 04:21:26;;;;;;;;;;;6.50;93.60;;;;;;2092756;28;20044;-89
2021/11/17 04:22:49;;;;;;;25.65;11.82;;;6.50;93.60;;;;;;2107407;28;19912;-89
2021/11/17 04:24:24;;;;;;;23.92;11.38;;;6.50;93.60;;;;;;2098153;28;20035;-89
2021/11/17 04:26:00;;;;;;;25.00;11.38;;;6.50;93.50;;;;;;2069847;28;20038;-88
2021/11/17 04:27:10;;;;;;;25.85;11.55;;;6.50;93.50;;;;;;2060074;28;20031;-89
2021/11/17 04:28:32;;;;;;;25.08;11.02;;;6.50;93.50;;;;;;2066689;28;20077;-89
2021/11/17 04:29:38;;;;;;;25.27;11.18;;;6.50;93.50;;;;;;2099544;28;20023;-88
2021/11/17 04:31:00;;;;;;;25.13;12.15;;;6.50;93.50;;;;;;2112440;28;20109;-88
2021/11/17 04:32:35;;;;;;;26.45;11.98;;;6.50;93.50;;;;;;2115740;28;20031;-84
2021/11/17 04:33:44;;;;;;;25.65;12.25;;;6.50;93.50;;;;;;2116851;28;20082;-89
2021/11/17 04:35:02;;;;;;;26.88;11.90;;;6.50;93.50;;;;;;2108988;28;20088;-85
2021/11/17 04:36:15;;;;;;;26.58;12.43;;;6.50;93.50;;;;;;2107530;28;20032;-89
2021/11/17 04:37:34;;;;;;;26.73;12.45;;;6.50;93.50;;;;;;2112537;28;20047;-89
2021/11/17 04:38:53;;;;;;;26.50;12.57;;;6.50;93.50;;;;;;2107056;28;20478;-88
2021/11/17 04:40:06;;;;;;;28.05;13.02;;;6.50;93.60;;;;;;2102721;28;20024;-89
2021/11/17 04:41:12;;;;;;;25.67;12.60;;;6.50;93.60;;;;;;2092346;28;20039;-89
2021/11/17 04:42:19;;;;;;;28.80;13.23;;;6.50;93.60;;;;;;2100811;28;20033;-89
2021/11/17 04:43:19;;;;;;;28.92;13.32;;;6.50;93.60;;;;;;2107070;28;20016;-89
2021/11/17 04:44:45;;;;;;;30.27;13.73;;;6.50;93.60;;;;;;2106157;28;20079;-89
2021/11/17 04:46:01;;;;;;;27.08;13.02;;;6.50;93.60;;;;;;2114387;28;20073;-89
2021/11/17 04:47:39;;;;;;;27.45;13.23;;;6.50;93.60;;;;;;2104997;28;20039;-89
2021/11/17 04:49:07;;;;;;;24.38;11.75;;;6.50;93.60;;;;;;2109598;28;20041;-89
2021/11/17 04:50:37;;;;;;;26.17;12.05;;;6.50;93.60;;;;;;2106896;28;20532;-90
2021/11/17 04:52:18;;;;;;;24.88;12.35;;;6.50;93.60;;;;;;2102872;28;20084;-90
2021/11/17 04:53:32;;;;;;;25.27;11.93;;;6.50;93.60;;;;;;2105911;28;20024;-90
2021/11/17 04:54:47;;;;;;;26.05;11.45;;;6.40;93.60;;;;;;2093188;28;20014;-90
2021/11/17 04:56:04;;;;;;;23.55;11.63;;;6.50;93.60;;;;;;2102979;28;20470;-89
2021/11/17 04:57:26;;;;;;;25.25;12.05;;;6.50;93.60;;;;;;2097895;28;20028;-90
2021/11/17 04:58:54;;;;;;;23.38;11.73;;;6.50;93.60;;;;;;2103746;28;20081;-90
2021/11/17 05:00:06;;;;;;;21.20;10.93;;;6.50;93.60;;;;;;2107534;28;20032;-90
2021/11/17 05:01:34;;;;;;;21.52;10.75;;;6.50;93.60;;;;;;2097911;28;20028;-90
2021/11/17 05:02:52;;;;;;;23.67;10.88;;;6.50;93.60;;;;;;2105423;28;20130;-90
2021/11/17 05:04:06;;;;;;;23.75;11.40;;;6.50;93.60;;;;;;2113529;28;20019;-90
2021/11/17 05:05:19;;;;;;;22.38;10.35;;;6.50;93.60;;;;;;2107579;28;20058;-90
2021/11/17 05:06:22;;;;;;;25.65;11.68;;;6.50;93.60;;;;;;2098073;28;20017;-90
2021/11/17 05:07:50;;;;;;;25.02;11.32;;;6.50;93.80;;;;;;2098904;28;20025;-90
2021/11/17 05:08:56;;;;;;;24.40;11.75;;;6.50;93.70;;;;;;2109456;28;20034;-89
2021/11/17 05:10:25;;;;;;;28.00;12.38;;;6.50;93.70;;;;;;2107677;28;20115;-89
2021/11/17 05:11:43;;;;;;;28.23;11.88;;;6.50;93.60;;;;;;2094994;28;20016;-90
2021/11/17 05:13:02;;;;;;;25.00;11.35;;;6.50;93.60;;;;;;2097697;28;20040;-90
2021/11/17 05:14:24;;;;;;;27.65;12.05;;;6.50;93.60;;;;;;2096650;28;20020;-89
2021/11/17 05:15:46;;;;;;;24.52;11.35;;;6.50;93.70;;;;;;2102530;28;20526;-90
2021/11/17 05:17:02;;;;;;;25.98;11.30;;;6.50;93.70;;;;;;2108077;28;20040;-89
2021/11/17 05:18:24;;;;;;;25.25;11.48;;;6.50;93.70;;;;;;2102003;28;20495;-89
2021/11/17 05:19:39;;;;;;;24.85;11.13;;;6.50;93.70;;;;;;2097373;28;20028;-89
2021/11/17 05:20:52;;;;;;;24.70;11.70;;;6.50;93.70;;;;;;2103222;28;20031;-89
2021/11/17 05:22:17;;;;;;;26.27;12.60;;;6.50;93.70;;;;;;2107572;28;20032;-88
2021/11/17 05:23:49;;;;;;;26.35;11.60;;;6.50;93.70;;;;;;2103014;28;20035;-89
2021/11/17 05:25:10;;;;;;;24.90;11.18;;;6.50;93.70;;;;;;2100995;28;20512;-89
2021/11/17 05:26:35;;;;;;;24.75;11.25;;;6.50;93.70;;;;;;2104142;28;20040;-86
2021/11/17 05:28:07;;;;;;;24.67;10.93;;;6.50;93.70;;;;;;2099290;28;20032;-91
2021/11/17 05:29:29;;;;;;;24.55;10.73;;;6.50;93.70;;;;;;2094782;28;20111;-91
2021/11/17 05:31:02;;;;;;;25.92;10.88;;;6.50;93.70;;;;;;2096985;28;20024;-90
2021/11/17 05:32:24;;;;;;;22.63;10.02;;;6.50;93.70;;;;;;2105217;28;20046;-91
2021/11/17 05:33:43;;;;;;;22.08;10.07;;;6.50;93.70;;;;;;2112206;28;20027;-90
2021/11/17 05:35:10;;;;;;;24.85;11.02;;;6.50;93.70;;;;;;2109323;28;20016;-90
2021/11/17 05:36:34;;;;;;;25.15;10.80;;;6.50;93.70;;;;;;2102990;28;20039;-88
2021/11/17 05:37:43;;;;;;;25.75;11.30;;;6.50;93.70;;;;;;2103675;28;20047;-90
2021/11/17 05:39:02;;;;;;;23.58;10.52;;;6.40;93.70;;;;;;2093810;28;20542;-91
2021/11/17 05:40:35;;;;;;;23.60;9.95;;;6.50;93.70;;;;;;2101674;28;20036;-89
2021/11/17 05:41:41;;;;;;;23.27;10.35;;;6.50;93.70;;;;;;2104621;28;20035;-89
2021/11/17 05:43:10;;;;;;;25.55;11.10;;;6.50;93.70;;;;;;2115902;28;20121;-90
2021/11/17 05:44:30;;;;;;;26.38;10.82;;;6.50;93.70;;;;;;2086713;28;20099;-90
2021/11/17 05:45:51;;;;;;;23.13;10.45;;;6.50;93.70;;;;;;2115968;28;20040;-90
2021/11/17 05:46:58;;;;;;;24.98;10.82;;;6.50;93.70;;;;;;2116304;28;20509;-89
2021/11/17 05:48:08;;;;;;;23.58;10.55;;;6.50;93.70;;;;;;2115962;28;20495;-92
2021/11/17 05:49:23;;;;;;;28.20;11.27;;;6.50;93.70;;;;;;2093615;28;20506;-89
2021/11/17 05:50:42;;;;;;;28.08;11.45;;;6.50;93.70;;;;;;2099061;28;20100;-90
2021/11/17 05:52:01;;;;;;;25.70;10.90;;;6.50;93.70;;;;;;2093827;28;20029;-89
2021/11/17 05:53:04;;;;;;;24.58;11.10;;;6.50;93.70;;;;;;2100182;28;20032;-89
2021/11/17 05:54:37;;;;;;;24.65;11.40;;;6.50;93.70;;;;;;2105177;28;20020;-85
2021/11/17 05:55:52;;;;;;;26.85;11.52;;;6.50;93.70;;;;;;2101112;28;20024;-91
2021/11/17 05:57:24;;;;;;;25.25;10.80;;;6.50;93.70;;;;;;2104168;28;20032;-91
2021/11/17 05:58:36;;;;;;;26.08;11.35;;;6.50;93.70;;;;;;2104603;28;20171;-90
2021/11/17 05:59:58;;;;;;;24.42;11.05;;;6.50;93.70;;;;;;2103882;28;20071;-90
2021/11/17 06:01:20;;;;;;;25.45;11.50;;;6.50;93.70;;;;;;2106662;28;20020;-90
2021/11/17 06:02:58;;;;;;;23.15;10.70;;;6.50;93.70;;;;;;2106523;28;20039;-90
2021/11/17 06:04:00;;;;;;;28.58;12.15;;;6.50;93.70;;;;;;2104135;28;20024;-90
2021/11/17 06:05:00;;;;;;;26.73;11.88;;;6.50;93.70;;;;;;2102843;28;20123;-90
2021/11/17 06:06:01;;;;;;;25.90;11.63;;;6.50;93.70;;;;;;2121249;28;20065;-91
2021/11/17 06:07:01;;;;;;;26.17;11.35;;;6.50;93.70;;;;;;2125383;28;20056;-90
2021/11/17 06:08:02;;;;;;;30.75;12.68;;;6.50;93.70;;;;;;2124144;28;20028;-90
2021/11/17 06:09:03;;;;;;;28.23;12.38;;;6.60;93.70;;;;;;2123897;28;20036;-90
2021/11/17 06:10:15;;;;;;;28.00;12.90;;;6.60;93.70;;;;;;2120419;28;20039;-89
2021/11/17 06:11:29;;;;;;;25.55;11.95;;;6.60;93.70;;;;;;2124059;28;20028;-82
2021/11/17 06:12:30;;;;;;;24.67;12.48;;;6.60;93.70;;;;;;2117542;28;20091;-82
2021/11/17 06:13:32;;;;;;;28.00;12.43;;;6.60;93.70;;;;;;2109244;28;20107;-88
2021/11/17 06:14:37;;;;;;;27.00;12.20;;;6.60;93.70;;;;;;2099125;28;20025;-88
2021/11/17 06:15:39;;;;;;;23.92;11.63;;;6.60;93.70;;;;;;2106349;28;20024;-89
2021/11/17 06:16:43;;;;;;;30.35;13.15;;;6.60;93.70;;;;;;2107836;28;20028;-88
2021/11/17 06:17:46;;;;;;;28.42;12.88;;;6.60;93.70;;;;;;2107671;28;20012;-88
2021/11/17 06:18:48;;;;;;;27.40;12.40;;;6.60;93.70;;;;;;2107102;28;20099;-88
2021/11/17 06:19:52;;;;;;;29.02;12.50;;;6.60;93.70;;;;;;2099043;28;20024;-88
2021/11/17 06:20:53;;;;;;;25.05;11.40;;;6.60;93.70;;;;;;2099558;28;20024;-88
2021/11/17 06:21:55;;;;;;;26.52;12.55;;;6.70;94.00;;;;;;2098091;28;20044;-89
2021/11/17 06:23:04;;;;;;;27.67;12.43;;;6.70;93.80;;;;;;2082354;28;20024;-88
2021/11/17 06:24:06;;;;;;;26.65;12.05;;;6.70;93.80;;;;;;2093913;28;20021;-89
2021/11/17 06:25:09;;;;;;;25.52;12.23;;;6.70;93.70;;;;;;2106966;28;20040;-89
2021/11/17 06:26:13;;;;;;;29.85;12.60;;;6.70;93.70;;;;;;2107367;28;20039;-89
2021/11/17 06:27:20;;;;;;;26.95;12.45;;;6.70;93.70;;;;;;2104908;28;20021;-89
2021/11/17 06:28:24;;;;;;;26.85;12.20;;;6.70;93.70;;;;;;2104786;28;20027;-89
2021/11/17 06:29:37;;;;;;;28.92;12.35;;;6.80;93.80;;;;;;2113751;28;20016;-89
2021/11/17 06:30:41;;;;;;;27.60;11.63;;;6.70;93.70;;;;;;2106818;28;20024;-89
2021/11/17 06:31:43;;;;;;;29.73;12.57;;;6.70;93.70;;;;;;2094871;28;20029;-89
2021/11/17 06:32:44;;;;;;;28.45;12.70;;;6.80;93.80;;;;;;2082534;28;20103;-89
2021/11/17 06:33:45;;;;;;;28.40;12.10;;;6.80;93.70;;;;;;2098294;28;20054;-89
2021/11/17 06:34:55;;;;;;;25.40;12.50;;;6.80;93.70;;;;;;2090367;28;20045;-89
2021/11/17 06:35:56;;;;;;;27.48;12.25;;;6.80;93.70;;;;;;2101399;28;20040;-89
2021/11/17 06:36:58;;;;;;;26.95;12.07;;;6.80;93.70;;;;;;2098590;28;20483;-89
2021/11/17 06:37:59;;;;;;;29.52;12.35;;;6.80;93.70;;;;;;2090888;28;20079;-89
2021/11/17 06:39:00;;;;;;;25.67;11.48;;;6.80;93.70;;;;;;2098063;28;20024;-89
2021/11/17 06:40:06;;;;;;;27.60;12.57;;;6.80;93.70;;;;;;2113114;28;20051;-88
2021/11/17 06:41:06;;;;;;;28.95;12.23;;;6.80;93.80;;;;;;2109701;28;20474;-89
2021/11/17 06:42:10;;;;;;;27.95;11.88;;;6.80;93.70;;;;;;2089651;28;20033;-89
2021/11/17 06:43:12;;;;;;;26.30;11.75;;;6.80;93.70;;;;;;2091387;28;20021;-89
2021/11/17 06:44:13;;;;;;;27.67;11.90;;;6.80;93.70;;;;;;2098832;28;20043;-91
2021/11/17 06:45:34;;;;;;;29.73;12.20;;;6.80;93.70;;;;;;2098802;28;20032;-89
2021/11/17 06:46:34;;;;;;;27.55;12.18;;;6.80;93.70;;;;;;2103408;28;20080;-90
2021/11/17 06:47:35;;;;;;;29.25;13.23;;;6.80;94.00;;;;;;2096351;28;20036;-90
2021/11/17 06:48:36;;;;;;;27.38;12.10;;;6.80;93.70;;;;;;2096826;28;20515;-89
2021/11/17 06:49:37;;;;;;;25.65;11.90;;;6.80;93.70;;;;;;2085301;28;20067;-89
2021/11/17 06:50:40;;;;;;;25.75;12.25;;;6.80;93.70;;;;;;2088034;28;20024;-91
2021/11/17 06:51:41;;;;;;;29.38;12.68;;;6.80;94.00;;;;;;2107273;28;20491;-90
2021/11/17 06:52:44;;;;;;;28.92;12.60;;;6.80;93.70;;;;;;2105173;28;20040;-91
2021/11/17 06:53:45;;;;;;;27.13;12.10;;;6.80;93.70;;;;;;2095776;28;20048;-90
2021/11/17 06:54:46;;;;;;;29.10;12.57;;;6.80;93.70;;;;;;2095140;28;20021;-90
2021/11/17 06:55:46;;;;;;;27.73;11.73;;;6.80;93.70;;;;;;2090064;28;20475;-90
2021/11/17 06:56:48;;;;;;;25.88;11.88;;;6.80;93.70;;;;;;2106898;28;20055;-89
2021/11/17 06:57:48;;;;;;;26.05;11.18;;;6.80;93.70;;;;;;2091961;28;20495;-89
2021/11/17 06:58:49;;;;;;;24.20;11.10;;;6.90;93.80;;;;;;2097320;28;20058;-89
2021/11/17 06:59:50;;;;;;;25.42;11.52;;;6.90;93.70;;;;;;2107412;28;20040;-89
2021/11/17 07:00:53;;;;;;;26.15;12.20;;;6.90;93.70;;;;;;2105910;28;20071;-90
2021/11/17 07:01:53;;;;;;;25.88;11.32;;;6.90;93.70;;;;;;2107446;28;20043;-90
2021/11/17 07:02:54;;;;;;;25.60;11.65;;;6.90;93.70;;;;;;2093810;28;20039;-89
2021/11/17 07:03:55;;;;;;;24.58;12.02;;;6.90;93.70;;;;;;2090534;28;20024;-89
2021/11/17 07:04:55;;;;;;;24.73;11.30;;;6.90;93.70;;;;;;2090743;28;20033;-89
2021/11/17 07:05:56;;;;;;;28.95;12.43;;;6.90;93.70;;;;;;2083014;28;20029;-90
2021/11/17 07:06:57;;;;;;;27.20;12.32;;;6.90;93.70;;;;;;2082598;28;20072;-89
2021/11/17 07:08:00;;;;;;;24.73;11.32;;;6.90;93.70;;;;;;2090183;28;20443;-89
2021/11/17 07:09:02;;;;;;;27.13;11.45;;;6.90;93.70;;;;;;2099140;28;20112;-90
2021/11/17 07:10:06;;;;;;;27.77;12.00;;;6.90;93.70;;;;;;2106531;28;20406;-90
2021/11/17 07:11:06;;;;;;;26.00;11.82;;;6.90;93.70;;;;;;2093440;28;20041;-90
2021/11/17 07:12:07;;;;;;;26.88;12.20;;;6.90;93.70;;;;;;2098722;28;20024;-90
2021/11/17 07:13:09;;;;;;;28.42;12.68;;;6.90;93.70;;;;;;2098077;28;20055;-91
2021/11/17 07:14:11;;;;;;;26.58;12.07;;;6.90;93.70;;;;;;2098707;28;20088;-90
2021/11/17 07:15:12;;;;;;;28.50;12.20;;;6.90;93.70;;;;;;2098672;28;20020;-91
2021/11/17 07:16:13;;;;;;;26.77;11.82;;;6.90;93.70;;;;;;2096157;28;20086;-91
2021/11/17 07:17:14;;;;;;;25.65;12.10;;;6.90;93.70;;;;;;2106125;28;20127;-90
2021/11/17 07:18:16;;;;;;;26.20;12.07;;;6.90;93.70;;;;;;2106896;28;20089;-90
2021/11/17 07:19:24;;;;;;;29.92;12.35;;;6.90;93.70;;;;;;2095499;28;20094;-90
2021/11/17 07:20:25;;;;;;;26.27;11.98;;;6.90;93.70;;;;;;2099456;28;20032;-90
2021/11/17 07:21:26;;;;;;;27.38;12.32;;;6.90;93.70;;;;;;2107304;28;20441;-88
2021/11/17 07:22:26;;;;;;;26.30;11.57;;;6.90;94.00;;;;;;2098733;28;20043;-90
2021/11/17 07:23:27;;;;;;;25.27;12.13;;;6.90;93.70;;;;;;2094949;28;20071;-90
2021/11/17 07:24:29;;;;;;;25.58;12.18;;;6.90;93.70;;;;;;2101218;28;20062;-90
2021/11/17 07:25:30;;;;;;;25.45;11.60;;;6.90;93.70;;;;;;2092387;28;20068;-90
2021/11/17 07:26:30;;;;;;;25.15;11.82;;;6.90;94.00;;;;;;2082263;28;20022;-89
2021/11/17 07:27:32;;;;;;;27.40;12.43;;;6.90;93.70;;;;;;2089810;28;20494;-90
2021/11/17 07:28:33;;;;;;;29.20;12.65;;;6.90;93.70;;;;;;2098797;28;20123;-89
2021/11/17 07:29:34;;;;;;;27.77;12.77;;;6.90;93.70;;;;;;2109193;28;20039;-89
2021/11/17 07:30:38;;;;;;;29.95;13.23;;;6.90;93.70;;;;;;2115500;28;20020;-89
2021/11/17 07:31:39;;;;;;;25.38;12.43;;;6.90;93.70;;;;;;2115236;28;20072;-89
2021/11/17 07:32:40;;;;;;;27.90;13.27;;;6.90;93.70;;;;;;2102625;28;20020;-89
2021/11/17 07:33:41;;;;;;;28.77;13.30;;;6.90;93.70;;;;;;2103762;28;20551;-89
2021/11/17 07:34:42;;;;;;;27.75;12.80;;;7.00;93.80;;;;;;2088104;28;20119;-89
2021/11/17 07:35:46;;;;;;;30.05;14.02;;;6.90;93.70;;;;;;2089358;28;20033;-90
2021/11/17 07:36:47;;;;;;;29.15;13.70;;;6.90;93.70;;;;;;2105422;28;20498;-89
2021/11/17 07:37:48;;;;;;;29.40;13.38;;;6.90;93.70;;;;;;2107105;28;20024;-89
2021/11/17 07:38:49;;;;;;;29.92;13.75;;;6.90;93.70;;;;;;2107384;28;20046;-90
2021/11/17 07:39:51;;;;;;;28.42;12.45;;;6.90;93.70;;;;;;2098854;28;20021;-89
2021/11/17 07:40:53;;;;;;;35.35;15.23;;;7.00;94.00;;;;;;2098573;28;20044;-89
2021/11/17 07:41:54;;;;;;;30.33;13.80;;;6.90;93.70;;;;;;2104860;28;20038;-90
2021/11/17 07:42:55;;;;;;;29.77;13.38;;;7.00;93.80;;;;;;2097799;28;20036;-90
2021/11/17 07:43:56;;;;;;;33.25;14.15;;;7.00;93.80;;;;;;2106542;28;20020;-89
2021/11/17 07:44:57;;;;;;;31.52;13.73;;;7.00;93.80;;;;;;2112690;28;20055;-89
2021/11/17 07:45:58;;;;;;;31.30;14.32;;;7.00;94.00;;;;;;2094272;28;20029;-88
2021/11/17 07:47:00;;;;;;;29.20;13.38;;;7.00;93.80;;;;;;2090289;28;20021;-90
2021/11/17 07:48:02;;;;;;;27.50;12.85;;;7.00;93.80;;;;;;2090529;28;20066;-90
2021/11/17 07:49:03;;;;;;;28.02;12.70;;;7.00;93.80;;;;;;2091805;28;20045;-89
2021/11/17 07:50:06;;;;;;;28.75;13.27;;;7.00;93.70;;;;;;2097747;28;20107;-90
2021/11/17 07:51:07;;;;;;;27.90;12.85;;;7.00;93.70;;;;;;2094744;28;20021;-89
2021/11/17 07:52:08;;;;;;;27.48;13.07;;;7.00;93.80;;;;;;2098245;28;20039;-89
2021/11/17 07:53:10;;;;;;;29.63;13.73;;;7.00;93.70;;;;;;2100073;28;20013;-85
2021/11/17 07:54:11;;;;;;;28.10;13.20;;;7.00;93.70;;;;;;2110392;28;20034;-89
2021/11/17 07:55:15;;;;;;;28.83;13.18;;;7.10;93.80;;;;;;2111327;28;20012;-89
2021/11/17 07:56:15;;;;;;;31.00;13.40;;;7.00;93.70;;;;;;2109404;28;20023;-84
2021/11/17 07:57:17;;;;;;;28.90;13.60;;;7.10;93.80;;;;;;2108804;28;20032;-88
2021/11/17 07:58:21;;;;;;;28.50;12.68;;;7.10;93.80;;;;;;2100718;28;20070;-87
2021/11/17 07:59:25;;;;;;;27.95;12.38;;;7.10;93.80;;;;;;2102129;28;20037;-88
2021/11/17 08:00:28;;;;;;;32.50;14.25;;;7.10;93.80;;;;;;2106946;28;20625;-89
2021/11/17 08:01:29;;;;;;;36.30;14.60;;;7.10;93.80;;;;;;2112800;28;20035;-89
2021/11/17 08:02:30;;;;;;;31.13;14.20;;;7.10;93.80;;;;;;2098000;28;20509;-89
2021/11/17 08:03:35;;;;;;;31.35;13.82;;;7.10;93.80;;;;;;2098176;28;20485;-89
2021/11/17 08:04:37;;;;;;;31.08;13.95;;;7.10;93.80;;;;;;2099128;28;20031;-89
2021/11/17 08:05:40;;;;;;;31.15;14.15;;;7.10;93.80;;;;;;2099052;28;20114;-89
2021/11/17 08:06:41;;;;;;;33.15;14.60;;;7.10;93.80;;;;;;2091060;28;20025;-90
2021/11/17 08:07:42;;;;;;;32.40;15.13;;;7.10;93.70;;;;;;2100030;28;20028;-89
2021/11/17 08:08:43;;;;;;;30.38;15.00;;;7.10;93.70;;;;;;2100467;28;20011;-89
2021/11/17 08:09:45;;;;;;;34.22;15.50;;;7.10;93.80;;;;;;2090935;28;20059;-90
2021/11/17 08:10:46;;;;;;;29.50;14.02;;;7.20;93.80;;;;;;2108340;28;20031;-89
2021/11/17 08:11:47;;;;;;;34.47;15.25;;;7.20;93.80;;;;;;2107281;28;20044;-90
2021/11/17 08:12:47;;;;;;;30.98;13.48;;;7.20;93.80;;;;;;2103088;28;20024;-90
2021/11/17 08:13:49;;;;;;;34.65;15.27;;;7.20;93.80;;;;;;2106420;28;20401;-90
2021/11/17 08:14:49;;;;;;;40.25;17.15;;;7.20;93.80;;;;;;2106071;28;20505;-89
2021/11/17 08:15:50;;;;;;;33.17;15.07;;;7.20;93.70;;;;;;2114500;28;20098;-91
2021/11/17 08:16:51;;;;;;;34.03;15.80;;;7.20;93.70;;;;;;2115069;28;20042;-91
2021/11/17 08:17:52;;;;;;;34.33;15.73;;;7.20;93.70;;;;;;2102354;28;20047;-90
2021/11/17 08:18:52;;;;;;;36.28;15.77;;;7.20;93.70;;;;;;2082865;28;20531;-90
2021/11/17 08:19:53;;;;;;;35.33;15.07;;;7.30;93.70;;;;;;2089708;28;20176;-90
2021/11/17 08:20:54;;;;;;;30.58;14.30;;;7.30;93.70;;;;;;2095005;28;20390;-90
2021/11/17 08:21:55;;;;;;;33.15;14.95;;;7.30;93.70;;;;;;2080257;28;20041;-89
2021/11/17 08:22:58;;;;;;;32.85;14.65;;;7.30;93.70;;;;;;2080334;28;20021;-90
2021/11/17 08:23:59;;;;;;;33.65;14.43;;;7.30;94.00;;;;;;2084142;28;20120;-90
2021/11/17 08:25:00;;;;;;;31.52;14.35;;;7.30;93.70;;;;;;2095217;28;20072;-90
2021/11/17 08:26:03;;;;;;;33.35;14.02;;;7.30;93.70;;;;;;2099110;28;20032;-89
2021/11/17 08:27:09;;;;;;;32.38;14.63;;;7.30;93.70;;;;;;2099456;28;20096;-90
2021/11/17 08:28:12;;;;;;;32.67;14.55;;;7.30;93.70;;;;;;2108303;28;20028;-90
2021/11/17 08:29:13;;;;;;;31.30;14.57;;;7.40;93.70;;;;;;2109415;28;20024;-91
2021/11/17 08:30:17;;;;;;;33.10;14.80;;;7.40;93.70;;;;;;2116880;28;20028;-90
2021/11/17 08:31:21;;;;;;;32.75;14.00;;;7.40;93.70;;;;;;2118476;28;20089;-90
2021/11/17 08:32:21;;;;;;;30.13;14.23;;;7.40;93.70;;;;;;2115373;28;20489;-90
2021/11/17 08:33:23;;;;;;;31.70;14.48;;;7.40;93.70;;;;;;2098521;28;20033;-89
2021/11/17 08:34:23;;;;;;;33.55;15.48;;;7.40;93.70;;;;;;2098659;28;20025;-90
2021/11/17 08:35:26;;;;;;;30.70;14.15;;;7.40;93.70;;;;;;2097927;28;20119;-90